sensor_id;sensor_type;location;lat;lon;timestamp;P1;durP1;ratioP1;P2;durP2;ratioP2
5867;SDS011;2960;49.142;7.768;2022-09-20T00:01:05;9.87;;;3.90;;
5867;SDS011;2960;49.142;7.768;2022-09-20T00:03:35;10.30;;;3.90;;
5867;SDS011;2960;49.142;7.768;2022-09-20T00:06:03;9.63;;;4.07;;
5867;SDS011;2960;49.142;7.768;2022-09-20T00:08:33;11.23;;;3.90;;
5867;SDS011;2960;49.142;7.768;2022-09-20T00:11:01;9.80;;;3.63;;
5867;SDS011;2960;49.142;7.768;2022-09-20T00:13:30;9.53;;;3.87;;
5867;SDS011;2960;49.142;7.768;2022-09-20T00:15:58;9.90;;;4.00;;
5867;SDS011;2960;49.142;7.768;2022-09-20T00:18:25;10.00;;;3.70;;
5867;SDS011;2960;49.142;7.768;2022-09-20T00:20:52;10.83;;;3.70;;
5867;SDS011;2960;49.142;7.768;2022-09-20T00:23:19;19.33;;;4.10;;
5867;SDS011;2960;49.142;7.768;2022-09-20T00:25:53;9.67;;;4.10;;
5867;SDS011;2960;49.142;7.768;2022-09-20T00:28:21;13.53;;;4.20;;
5867;SDS011;2960;49.142;7.768;2022-09-20T00:30:51;9.43;;;3.80;;
5867;SDS011;2960;49.142;7.768;2022-09-20T00:33:19;9.50;;;3.70;;
5867;SDS011;2960;49.142;7.768;2022-09-20T00:35:46;10.13;;;4.13;;
5867;SDS011;2960;49.142;7.768;2022-09-20T00:38:13;9.57;;;3.90;;
5867;SDS011;2960;49.142;7.768;2022-09-20T00:40:41;9.87;;;4.00;;
5867;SDS011;2960;49.142;7.768;2022-09-20T00:43:11;9.40;;;3.67;;
5867;SDS011;2960;49.142;7.768;2022-09-20T00:45:40;9.50;;;3.87;;
5867;SDS011;2960;49.142;7.768;2022-09-20T00:48:10;9.40;;;3.70;;
5867;SDS011;2960;49.142;7.768;2022-09-20T00:50:42;9.50;;;3.90;;
5867;SDS011;2960;49.142;7.768;2022-09-20T00:53:12;9.30;;;3.70;;
5867;SDS011;2960;49.142;7.768;2022-09-20T00:55:44;9.50;;;3.77;;
5867;SDS011;2960;49.142;7.768;2022-09-20T00:58:16;9.17;;;3.40;;
5867;SDS011;2960;49.142;7.768;2022-09-20T01:00:44;9.70;;;3.60;;
5867;SDS011;2960;49.142;7.768;2022-09-20T01:03:15;9.40;;;3.30;;
5867;SDS011;2960;49.142;7.768;2022-09-20T01:05:47;9.20;;;3.23;;
5867;SDS011;2960;49.142;7.768;2022-09-20T01:08:16;9.40;;;3.50;;
5867;SDS011;2960;49.142;7.768;2022-09-20T01:10:44;9.70;;;3.50;;
5867;SDS011;2960;49.142;7.768;2022-09-20T01:13:11;9.70;;;3.63;;
5867;SDS011;2960;49.142;7.768;2022-09-20T01:15:38;9.60;;;3.30;;
5867;SDS011;2960;49.142;7.768;2022-09-20T01:18:07;9.53;;;3.60;;
5867;SDS011;2960;49.142;7.768;2022-09-20T01:20:37;9.60;;;3.40;;
5867;SDS011;2960;49.142;7.768;2022-09-20T01:23:11;9.70;;;3.90;;
5867;SDS011;2960;49.142;7.768;2022-09-20T01:26:12;9.60;;;3.60;;
5867;SDS011;2960;49.142;7.768;2022-09-20T01:29:21;9.70;;;3.57;;
5867;SDS011;2960;49.142;7.768;2022-09-20T01:32:02;9.37;;;3.50;;
5867;SDS011;2960;49.142;7.768;2022-09-20T01:34:38;9.57;;;3.53;;
5867;SDS011;2960;49.142;7.768;2022-09-20T01:37:13;9.40;;;3.40;;
5867;SDS011;2960;49.142;7.768;2022-09-20T01:39:47;9.53;;;3.50;;
5867;SDS011;2960;49.142;7.768;2022-09-20T01:42:21;10.10;;;3.70;;
5867;SDS011;2960;49.142;7.768;2022-09-20T01:44:58;10.30;;;3.60;;
5867;SDS011;2960;49.142;7.768;2022-09-20T01:47:31;9.23;;;3.43;;
5867;SDS011;2960;49.142;7.768;2022-09-20T01:50:08;9.50;;;3.40;;
5867;SDS011;2960;49.142;7.768;2022-09-20T01:52:49;9.80;;;3.60;;
5867;SDS011;2960;49.142;7.768;2022-09-20T01:55:47;9.50;;;3.33;;
5867;SDS011;2960;49.142;7.768;2022-09-20T01:59:02;9.17;;;3.50;;
5867;SDS011;2960;49.142;7.768;2022-09-20T02:02:20;9.80;;;3.50;;
5867;SDS011;2960;49.142;7.768;2022-09-20T02:05:16;10.47;;;3.47;;
5867;SDS011;2960;49.142;7.768;2022-09-20T02:11:34;9.30;;;3.50;;
5867;SDS011;2960;49.142;7.768;2022-09-20T02:14:26;9.07;;;3.27;;
5867;SDS011;2960;49.142;7.768;2022-09-20T02:17:03;9.43;;;3.60;;
5867;SDS011;2960;49.142;7.768;2022-09-20T02:19:44;9.00;;;3.27;;
5867;SDS011;2960;49.142;7.768;2022-09-20T02:25:37;8.97;;;3.10;;
5867;SDS011;2960;49.142;7.768;2022-09-20T02:28:22;9.10;;;3.20;;
5867;SDS011;2960;49.142;7.768;2022-09-20T02:31:00;9.30;;;3.13;;
5867;SDS011;2960;49.142;7.768;2022-09-20T02:33:42;9.07;;;3.30;;
5867;SDS011;2960;49.142;7.768;2022-09-20T02:36:32;9.40;;;3.13;;
5867;SDS011;2960;49.142;7.768;2022-09-20T02:39:10;9.33;;;3.33;;
5867;SDS011;2960;49.142;7.768;2022-09-20T02:41:52;9.30;;;3.10;;
5867;SDS011;2960;49.142;7.768;2022-09-20T02:44:32;9.60;;;3.30;;
5867;SDS011;2960;49.142;7.768;2022-09-20T02:47:12;9.20;;;3.30;;
5867;SDS011;2960;49.142;7.768;2022-09-20T02:49:56;9.10;;;3.13;;
5867;SDS011;2960;49.142;7.768;2022-09-20T02:52:37;9.47;;;3.40;;
5867;SDS011;2960;49.142;7.768;2022-09-20T02:55:12;9.07;;;3.10;;
5867;SDS011;2960;49.142;7.768;2022-09-20T02:57:45;9.80;;;3.40;;
5867;SDS011;2960;49.142;7.768;2022-09-20T03:00:20;8.90;;;3.00;;
5867;SDS011;2960;49.142;7.768;2022-09-20T03:02:56;9.20;;;3.33;;
5867;SDS011;2960;49.142;7.768;2022-09-20T03:05:35;9.50;;;3.20;;
5867;SDS011;2960;49.142;7.768;2022-09-20T03:08:19;9.40;;;3.10;;
5867;SDS011;2960;49.142;7.768;2022-09-20T03:11:00;8.80;;;2.90;;
5867;SDS011;2960;49.142;7.768;2022-09-20T03:13:42;8.93;;;3.20;;
5867;SDS011;2960;49.142;7.768;2022-09-20T03:16:26;9.07;;;3.23;;
5867;SDS011;2960;49.142;7.768;2022-09-20T03:19:05;9.20;;;3.37;;
5867;SDS011;2960;49.142;7.768;2022-09-20T03:21:51;8.90;;;2.83;;
5867;SDS011;2960;49.142;7.768;2022-09-20T03:24:36;8.93;;;2.80;;
5867;SDS011;2960;49.142;7.768;2022-09-20T03:27:22;8.93;;;2.87;;
5867;SDS011;2960;49.142;7.768;2022-09-20T03:30:02;8.90;;;3.13;;
5867;SDS011;2960;49.142;7.768;2022-09-20T03:32:47;9.00;;;3.10;;
5867;SDS011;2960;49.142;7.768;2022-09-20T03:35:34;9.10;;;2.90;;
5867;SDS011;2960;49.142;7.768;2022-09-20T03:38:23;9.30;;;3.13;;
5867;SDS011;2960;49.142;7.768;2022-09-20T03:44:32;9.60;;;3.17;;
5867;SDS011;2960;49.142;7.768;2022-09-20T03:47:42;9.00;;;2.90;;
5867;SDS011;2960;49.142;7.768;2022-09-20T03:50:37;8.93;;;3.00;;
5867;SDS011;2960;49.142;7.768;2022-09-20T03:53:20;9.10;;;3.00;;
5867;SDS011;2960;49.142;7.768;2022-09-20T03:59:51;8.70;;;2.93;;
5867;SDS011;2960;49.142;7.768;2022-09-20T04:02:44;8.57;;;2.80;;
5867;SDS011;2960;49.142;7.768;2022-09-20T04:05:55;9.47;;;3.47;;
5867;SDS011;2960;49.142;7.768;2022-09-20T04:08:44;9.10;;;3.10;;
5867;SDS011;2960;49.142;7.768;2022-09-20T04:11:24;8.97;;;2.97;;
5867;SDS011;2960;49.142;7.768;2022-09-20T04:13:59;9.20;;;3.27;;
5867;SDS011;2960;49.142;7.768;2022-09-20T04:16:39;9.50;;;3.07;;
5867;SDS011;2960;49.142;7.768;2022-09-20T04:19:15;8.80;;;2.67;;
5867;SDS011;2960;49.142;7.768;2022-09-20T04:21:51;9.67;;;3.17;;
5867;SDS011;2960;49.142;7.768;2022-09-20T04:24:22;9.50;;;3.10;;
5867;SDS011;2960;49.142;7.768;2022-09-20T04:27:02;9.10;;;3.00;;
5867;SDS011;2960;49.142;7.768;2022-09-20T04:29:41;9.53;;;3.00;;
5867;SDS011;2960;49.142;7.768;2022-09-20T04:32:16;9.40;;;3.23;;
5867;SDS011;2960;49.142;7.768;2022-09-20T04:34:52;9.10;;;3.10;;
5867;SDS011;2960;49.142;7.768;2022-09-20T04:37:45;9.40;;;3.07;;
5867;SDS011;2960;49.142;7.768;2022-09-20T04:40:19;8.87;;;3.00;;
5867;SDS011;2960;49.142;7.768;2022-09-20T04:43:15;9.33;;;3.07;;
5867;SDS011;2960;49.142;7.768;2022-09-20T04:46:26;8.80;;;2.93;;
5867;SDS011;2960;49.142;7.768;2022-09-20T04:52:48;9.30;;;3.10;;
5867;SDS011;2960;49.142;7.768;2022-09-20T04:55:49;9.13;;;2.97;;
5867;SDS011;2960;49.142;7.768;2022-09-20T05:01:50;9.00;;;3.10;;
5867;SDS011;2960;49.142;7.768;2022-09-20T05:04:57;8.90;;;2.80;;
5867;SDS011;2960;49.142;7.768;2022-09-20T05:11:31;9.90;;;2.90;;
5867;SDS011;2960;49.142;7.768;2022-09-20T05:17:41;8.87;;;2.90;;
5867;SDS011;2960;49.142;7.768;2022-09-20T05:23:26;8.90;;;2.80;;
5867;SDS011;2960;49.142;7.768;2022-09-20T05:26:13;9.10;;;2.90;;
5867;SDS011;2960;49.142;7.768;2022-09-20T05:28:50;8.90;;;2.90;;
5867;SDS011;2960;49.142;7.768;2022-09-20T05:31:25;8.70;;;2.77;;
5867;SDS011;2960;49.142;7.768;2022-09-20T05:34:08;8.90;;;2.70;;
5867;SDS011;2960;49.142;7.768;2022-09-20T05:36:48;9.10;;;3.07;;
5867;SDS011;2960;49.142;7.768;2022-09-20T05:39:30;10.33;;;3.00;;
5867;SDS011;2960;49.142;7.768;2022-09-20T05:42:06;9.77;;;2.93;;
5867;SDS011;2960;49.142;7.768;2022-09-20T05:47:39;8.67;;;2.77;;
5867;SDS011;2960;49.142;7.768;2022-09-20T05:50:23;8.93;;;2.77;;
5867;SDS011;2960;49.142;7.768;2022-09-20T05:53:15;8.97;;;2.80;;
5867;SDS011;2960;49.142;7.768;2022-09-20T05:56:14;9.00;;;3.00;;
5867;SDS011;2960;49.142;7.768;2022-09-20T05:58:54;9.07;;;3.10;;
5867;SDS011;2960;49.142;7.768;2022-09-20T06:01:40;9.10;;;3.23;;
5867;SDS011;2960;49.142;7.768;2022-09-20T06:04:15;9.50;;;3.40;;
5867;SDS011;2960;49.142;7.768;2022-09-20T06:06:53;10.23;;;3.57;;
5867;SDS011;2960;49.142;7.768;2022-09-20T06:09:39;9.20;;;3.40;;
5867;SDS011;2960;49.142;7.768;2022-09-20T06:12:29;9.10;;;3.20;;
5867;SDS011;2960;49.142;7.768;2022-09-20T06:15:11;9.30;;;3.20;;
5867;SDS011;2960;49.142;7.768;2022-09-20T06:17:47;9.47;;;3.40;;
5867;SDS011;2960;49.142;7.768;2022-09-20T06:20:23;8.97;;;3.10;;
5867;SDS011;2960;49.142;7.768;2022-09-20T06:22:56;9.37;;;3.20;;
5867;SDS011;2960;49.142;7.768;2022-09-20T06:25:27;8.90;;;3.17;;
5867;SDS011;2960;49.142;7.768;2022-09-20T06:28:02;9.60;;;3.20;;
5867;SDS011;2960;49.142;7.768;2022-09-20T06:30:34;9.00;;;3.07;;
5867;SDS011;2960;49.142;7.768;2022-09-20T06:33:12;11.83;;;3.40;;
5867;SDS011;2960;49.142;7.768;2022-09-20T06:35:43;8.97;;;3.13;;
5867;SDS011;2960;49.142;7.768;2022-09-20T06:38:19;9.50;;;3.47;;
5867;SDS011;2960;49.142;7.768;2022-09-20T06:41:25;8.83;;;3.00;;
5867;SDS011;2960;49.142;7.768;2022-09-20T06:43:54;9.70;;;3.20;;
5867;SDS011;2960;49.142;7.768;2022-09-20T06:46:22;10.33;;;3.30;;
5867;SDS011;2960;49.142;7.768;2022-09-20T06:48:52;9.50;;;3.33;;
5867;SDS011;2960;49.142;7.768;2022-09-20T06:51:19;9.40;;;3.00;;
5867;SDS011;2960;49.142;7.768;2022-09-20T06:53:48;8.87;;;3.00;;
5867;SDS011;2960;49.142;7.768;2022-09-20T06:56:17;9.50;;;3.40;;
5867;SDS011;2960;49.142;7.768;2022-09-20T06:58:47;10.97;;;3.80;;
5867;SDS011;2960;49.142;7.768;2022-09-20T07:01:16;10.07;;;3.40;;
5867;SDS011;2960;49.142;7.768;2022-09-20T07:03:43;9.00;;;3.30;;
5867;SDS011;2960;49.142;7.768;2022-09-20T07:06:10;9.20;;;3.10;;
5867;SDS011;2960;49.142;7.768;2022-09-20T07:08:40;9.40;;;3.20;;
5867;SDS011;2960;49.142;7.768;2022-09-20T07:11:11;9.07;;;3.40;;
5867;SDS011;2960;49.142;7.768;2022-09-20T07:13:40;9.90;;;3.53;;
5867;SDS011;2960;49.142;7.768;2022-09-20T07:16:07;9.60;;;3.60;;
5867;SDS011;2960;49.142;7.768;2022-09-20T07:18:38;9.17;;;3.30;;
5867;SDS011;2960;49.142;7.768;2022-09-20T07:21:05;9.27;;;3.40;;
5867;SDS011;2960;49.142;7.768;2022-09-20T07:23:33;9.97;;;3.70;;
5867;SDS011;2960;49.142;7.768;2022-09-20T07:26:00;9.43;;;3.63;;
5867;SDS011;2960;49.142;7.768;2022-09-20T07:28:29;9.80;;;3.70;;
5867;SDS011;2960;49.142;7.768;2022-09-20T07:30:59;10.40;;;3.60;;
5867;SDS011;2960;49.142;7.768;2022-09-20T07:33:26;9.70;;;3.50;;
5867;SDS011;2960;49.142;7.768;2022-09-20T07:35:54;9.40;;;3.30;;
5867;SDS011;2960;49.142;7.768;2022-09-20T07:38:21;9.27;;;3.23;;
5867;SDS011;2960;49.142;7.768;2022-09-20T07:40:53;10.97;;;3.67;;
5867;SDS011;2960;49.142;7.768;2022-09-20T07:43:21;9.23;;;3.30;;
5867;SDS011;2960;49.142;7.768;2022-09-20T07:45:50;9.37;;;3.30;;
5867;SDS011;2960;49.142;7.768;2022-09-20T07:48:20;11.47;;;3.40;;
5867;SDS011;2960;49.142;7.768;2022-09-20T07:50:50;9.17;;;3.20;;
5867;SDS011;2960;49.142;7.768;2022-09-20T07:53:18;9.43;;;3.43;;
5867;SDS011;2960;49.142;7.768;2022-09-20T07:55:54;9.70;;;3.40;;
5867;SDS011;2960;49.142;7.768;2022-09-20T07:58:23;10.20;;;3.40;;
5867;SDS011;2960;49.142;7.768;2022-09-20T08:00:53;10.40;;;3.77;;
5867;SDS011;2960;49.142;7.768;2022-09-20T08:03:22;9.60;;;3.37;;
5867;SDS011;2960;49.142;7.768;2022-09-20T08:05:50;9.70;;;3.57;;
5867;SDS011;2960;49.142;7.768;2022-09-20T08:08:18;9.40;;;3.40;;
5867;SDS011;2960;49.142;7.768;2022-09-20T08:10:45;10.00;;;3.87;;
5867;SDS011;2960;49.142;7.768;2022-09-20T08:13:12;9.67;;;3.67;;
5867;SDS011;2960;49.142;7.768;2022-09-20T08:15:41;9.67;;;3.57;;
5867;SDS011;2960;49.142;7.768;2022-09-20T08:18:09;10.73;;;3.97;;
5867;SDS011;2960;49.142;7.768;2022-09-20T08:20:38;10.50;;;3.90;;
5867;SDS011;2960;49.142;7.768;2022-09-20T08:23:05;10.00;;;4.20;;
5867;SDS011;2960;49.142;7.768;2022-09-20T08:25:34;10.80;;;4.10;;
5867;SDS011;2960;49.142;7.768;2022-09-20T08:28:02;10.27;;;3.60;;
5867;SDS011;2960;49.142;7.768;2022-09-20T08:30:29;13.93;;;4.17;;
5867;SDS011;2960;49.142;7.768;2022-09-20T08:32:56;12.13;;;3.63;;
5867;SDS011;2960;49.142;7.768;2022-09-20T08:35:25;10.60;;;3.87;;
5867;SDS011;2960;49.142;7.768;2022-09-20T08:37:53;10.03;;;3.40;;
5867;SDS011;2960;49.142;7.768;2022-09-20T08:40:21;10.43;;;3.83;;
5867;SDS011;2960;49.142;7.768;2022-09-20T08:42:50;10.20;;;3.70;;
5867;SDS011;2960;49.142;7.768;2022-09-20T08:45:19;11.67;;;3.60;;
5867;SDS011;2960;49.142;7.768;2022-09-20T08:47:48;10.60;;;3.90;;
5867;SDS011;2960;49.142;7.768;2022-09-20T08:50:19;10.40;;;3.80;;
5867;SDS011;2960;49.142;7.768;2022-09-20T08:52:48;10.67;;;3.53;;
5867;SDS011;2960;49.142;7.768;2022-09-20T08:55:19;10.50;;;3.33;;
5867;SDS011;2960;49.142;7.768;2022-09-20T08:57:51;9.50;;;3.07;;
5867;SDS011;2960;49.142;7.768;2022-09-20T09:00:22;10.10;;;3.80;;
5867;SDS011;2960;49.142;7.768;2022-09-20T09:02:53;10.00;;;3.60;;
5867;SDS011;2960;49.142;7.768;2022-09-20T09:05:27;9.90;;;3.20;;
5867;SDS011;2960;49.142;7.768;2022-09-20T09:08:00;10.20;;;3.50;;
5867;SDS011;2960;49.142;7.768;2022-09-20T09:10:36;9.63;;;3.40;;
5867;SDS011;2960;49.142;7.768;2022-09-20T09:13:05;10.07;;;3.70;;
5867;SDS011;2960;49.142;7.768;2022-09-20T09:15:33;10.60;;;4.13;;
5867;SDS011;2960;49.142;7.768;2022-09-20T09:18:02;10.53;;;3.77;;
5867;SDS011;2960;49.142;7.768;2022-09-20T09:20:39;10.30;;;3.87;;
5867;SDS011;2960;49.142;7.768;2022-09-20T09:23:18;10.13;;;3.50;;
5867;SDS011;2960;49.142;7.768;2022-09-20T09:25:50;13.90;;;3.97;;
5867;SDS011;2960;49.142;7.768;2022-09-20T09:28:19;10.70;;;3.77;;
5867;SDS011;2960;49.142;7.768;2022-09-20T09:30:57;10.80;;;3.50;;
5867;SDS011;2960;49.142;7.768;2022-09-20T09:33:41;10.23;;;3.43;;
5867;SDS011;2960;49.142;7.768;2022-09-20T09:36:12;10.50;;;3.30;;
5867;SDS011;2960;49.142;7.768;2022-09-20T09:38:44;10.47;;;3.90;;
5867;SDS011;2960;49.142;7.768;2022-09-20T09:41:20;10.23;;;3.80;;
5867;SDS011;2960;49.142;7.768;2022-09-20T09:43:57;10.60;;;3.97;;
5867;SDS011;2960;49.142;7.768;2022-09-20T09:46:26;10.77;;;3.87;;
5867;SDS011;2960;49.142;7.768;2022-09-20T09:49:04;12.40;;;3.80;;
5867;SDS011;2960;49.142;7.768;2022-09-20T09:51:35;10.60;;;3.53;;
5867;SDS011;2960;49.142;7.768;2022-09-20T09:54:04;11.47;;;3.50;;
5867;SDS011;2960;49.142;7.768;2022-09-20T09:59:36;10.10;;;3.30;;
5867;SDS011;2960;49.142;7.768;2022-09-20T10:02:26;11.80;;;4.17;;
5867;SDS011;2960;49.142;7.768;2022-09-20T10:05:24;11.53;;;3.77;;
5867;SDS011;2960;49.142;7.768;2022-09-20T10:07:58;10.57;;;3.90;;
5867;SDS011;2960;49.142;7.768;2022-09-20T10:10:43;11.13;;;4.00;;
5867;SDS011;2960;49.142;7.768;2022-09-20T10:13:26;10.30;;;3.93;;
5867;SDS011;2960;49.142;7.768;2022-09-20T10:15:59;10.30;;;3.50;;
5867;SDS011;2960;49.142;7.768;2022-09-20T10:18:37;10.80;;;3.73;;
5867;SDS011;2960;49.142;7.768;2022-09-20T10:21:15;10.60;;;3.90;;
5867;SDS011;2960;49.142;7.768;2022-09-20T10:24:04;10.40;;;3.80;;
5867;SDS011;2960;49.142;7.768;2022-09-20T10:27:00;10.47;;;3.90;;
5867;SDS011;2960;49.142;7.768;2022-09-20T10:29:45;10.40;;;3.80;;
5867;SDS011;2960;49.142;7.768;2022-09-20T10:32:33;10.33;;;3.80;;
5867;SDS011;2960;49.142;7.768;2022-09-20T10:35:24;11.37;;;3.80;;
5867;SDS011;2960;49.142;7.768;2022-09-20T10:38:11;10.17;;;3.50;;
5867;SDS011;2960;49.142;7.768;2022-09-20T10:40:44;10.30;;;3.60;;
5867;SDS011;2960;49.142;7.768;2022-09-20T10:43:57;10.30;;;3.60;;
5867;SDS011;2960;49.142;7.768;2022-09-20T10:46:40;12.80;;;3.70;;
5867;SDS011;2960;49.142;7.768;2022-09-20T10:49:18;10.53;;;3.33;;
5867;SDS011;2960;49.142;7.768;2022-09-20T10:52:05;10.70;;;3.30;;
5867;SDS011;2960;49.142;7.768;2022-09-20T10:55:09;11.00;;;3.50;;
5867;SDS011;2960;49.142;7.768;2022-09-20T10:58:14;10.33;;;3.47;;
5867;SDS011;2960;49.142;7.768;2022-09-20T11:01:07;10.10;;;3.30;;
5867;SDS011;2960;49.142;7.768;2022-09-20T11:03:47;10.63;;;3.60;;
5867;SDS011;2960;49.142;7.768;2022-09-20T11:06:38;10.40;;;3.70;;
5867;SDS011;2960;49.142;7.768;2022-09-20T11:09:16;9.87;;;3.30;;
5867;SDS011;2960;49.142;7.768;2022-09-20T11:11:49;10.20;;;3.57;;
5867;SDS011;2960;49.142;7.768;2022-09-20T11:14:24;10.80;;;3.80;;
5867;SDS011;2960;49.142;7.768;2022-09-20T11:16:59;10.70;;;3.70;;
5867;SDS011;2960;49.142;7.768;2022-09-20T11:19:35;9.90;;;3.40;;
5867;SDS011;2960;49.142;7.768;2022-09-20T11:22:13;10.20;;;3.60;;
5867;SDS011;2960;49.142;7.768;2022-09-20T11:24:45;9.77;;;3.30;;
5867;SDS011;2960;49.142;7.768;2022-09-20T11:27:17;10.10;;;3.50;;
5867;SDS011;2960;49.142;7.768;2022-09-20T11:29:48;9.93;;;3.40;;
5867;SDS011;2960;49.142;7.768;2022-09-20T11:32:24;10.30;;;3.40;;
5867;SDS011;2960;49.142;7.768;2022-09-20T11:34:58;10.53;;;3.53;;
5867;SDS011;2960;49.142;7.768;2022-09-20T11:37:31;10.17;;;3.53;;
5867;SDS011;2960;49.142;7.768;2022-09-20T11:40:03;10.63;;;3.60;;
5867;SDS011;2960;49.142;7.768;2022-09-20T11:42:39;10.53;;;3.60;;
5867;SDS011;2960;49.142;7.768;2022-09-20T11:45:09;10.30;;;3.40;;
5867;SDS011;2960;49.142;7.768;2022-09-20T11:47:39;11.53;;;3.83;;
5867;SDS011;2960;49.142;7.768;2022-09-20T11:50:28;10.40;;;3.37;;
5867;SDS011;2960;49.142;7.768;2022-09-20T11:53:39;10.00;;;3.30;;
5867;SDS011;2960;49.142;7.768;2022-09-20T11:56:21;9.97;;;3.53;;
5867;SDS011;2960;49.142;7.768;2022-09-20T11:58:51;10.20;;;3.80;;
5867;SDS011;2960;49.142;7.768;2022-09-20T12:01:23;10.77;;;3.40;;
5867;SDS011;2960;49.142;7.768;2022-09-20T12:03:55;10.27;;;3.40;;
5867;SDS011;2960;49.142;7.768;2022-09-20T12:06:27;9.80;;;3.30;;
5867;SDS011;2960;49.142;7.768;2022-09-20T12:08:58;13.50;;;3.57;;
5867;SDS011;2960;49.142;7.768;2022-09-20T12:11:29;10.20;;;3.20;;
5867;SDS011;2960;49.142;7.768;2022-09-20T12:14:00;10.53;;;3.20;;
5867;SDS011;2960;49.142;7.768;2022-09-20T12:16:35;10.10;;;3.20;;
5867;SDS011;2960;49.142;7.768;2022-09-20T12:19:08;9.90;;;3.00;;
5867;SDS011;2960;49.142;7.768;2022-09-20T12:24:43;11.00;;;3.57;;
5867;SDS011;2960;49.142;7.768;2022-09-20T12:30:21;9.77;;;3.30;;
5867;SDS011;2960;49.142;7.768;2022-09-20T12:32:53;9.87;;;3.30;;
5867;SDS011;2960;49.142;7.768;2022-09-20T12:41:45;10.40;;;3.33;;
5867;SDS011;2960;49.142;7.768;2022-09-20T12:44:22;10.80;;;3.40;;
5867;SDS011;2960;49.142;7.768;2022-09-20T12:46:53;10.03;;;3.50;;
5867;SDS011;2960;49.142;7.768;2022-09-20T12:49:33;10.07;;;3.50;;
5867;SDS011;2960;49.142;7.768;2022-09-20T12:52:32;10.00;;;3.30;;
5867;SDS011;2960;49.142;7.768;2022-09-20T12:55:29;10.03;;;3.60;;
5867;SDS011;2960;49.142;7.768;2022-09-20T12:58:18;10.50;;;3.77;;
5867;SDS011;2960;49.142;7.768;2022-09-20T13:07:43;10.57;;;3.50;;
5867;SDS011;2960;49.142;7.768;2022-09-20T13:10:27;10.13;;;3.33;;
5867;SDS011;2960;49.142;7.768;2022-09-20T13:13:01;11.77;;;3.60;;
5867;SDS011;2960;49.142;7.768;2022-09-20T13:15:45;11.07;;;3.50;;
5867;SDS011;2960;49.142;7.768;2022-09-20T13:18:14;9.87;;;3.27;;
5867;SDS011;2960;49.142;7.768;2022-09-20T13:20:43;10.10;;;3.30;;
5867;SDS011;2960;49.142;7.768;2022-09-20T13:23:16;9.83;;;3.40;;
5867;SDS011;2960;49.142;7.768;2022-09-20T13:25:48;11.73;;;3.40;;
5867;SDS011;2960;49.142;7.768;2022-09-20T13:28:19;10.43;;;3.80;;
5867;SDS011;2960;49.142;7.768;2022-09-20T13:34:11;9.90;;;3.27;;
5867;SDS011;2960;49.142;7.768;2022-09-20T13:36:40;11.70;;;3.40;;
5867;SDS011;2960;49.142;7.768;2022-09-20T13:39:18;9.80;;;3.07;;
5867;SDS011;2960;49.142;7.768;2022-09-20T13:41:59;10.03;;;3.53;;
5867;SDS011;2960;49.142;7.768;2022-09-20T13:44:31;9.80;;;3.10;;
5867;SDS011;2960;49.142;7.768;2022-09-20T13:46:59;9.87;;;3.07;;
5867;SDS011;2960;49.142;7.768;2022-09-20T13:49:30;10.27;;;3.20;;
5867;SDS011;2960;49.142;7.768;2022-09-20T13:51:57;9.90;;;3.30;;
5867;SDS011;2960;49.142;7.768;2022-09-20T13:54:27;10.30;;;3.40;;
5867;SDS011;2960;49.142;7.768;2022-09-20T13:56:57;10.10;;;3.77;;
5867;SDS011;2960;49.142;7.768;2022-09-20T13:59:29;10.00;;;3.53;;
5867;SDS011;2960;49.142;7.768;2022-09-20T14:02:10;9.77;;;3.30;;
5867;SDS011;2960;49.142;7.768;2022-09-20T14:04:49;9.90;;;3.70;;
5867;SDS011;2960;49.142;7.768;2022-09-20T14:07:19;10.10;;;3.60;;
5867;SDS011;2960;49.142;7.768;2022-09-20T14:09:51;9.90;;;3.50;;
5867;SDS011;2960;49.142;7.768;2022-09-20T14:12:19;9.67;;;3.03;;
5867;SDS011;2960;49.142;7.768;2022-09-20T14:14:48;9.80;;;3.33;;
5867;SDS011;2960;49.142;7.768;2022-09-20T14:17:17;9.57;;;3.03;;
5867;SDS011;2960;49.142;7.768;2022-09-20T14:19:49;9.63;;;3.10;;
5867;SDS011;2960;49.142;7.768;2022-09-20T14:22:19;9.80;;;3.40;;
5867;SDS011;2960;49.142;7.768;2022-09-20T14:24:58;9.70;;;3.20;;
5867;SDS011;2960;49.142;7.768;2022-09-20T14:27:28;9.73;;;3.20;;
5867;SDS011;2960;49.142;7.768;2022-09-20T14:29:56;10.20;;;3.33;;
5867;SDS011;2960;49.142;7.768;2022-09-20T14:32:29;9.80;;;3.30;;
5867;SDS011;2960;49.142;7.768;2022-09-20T14:35:06;9.97;;;3.30;;
5867;SDS011;2960;49.142;7.768;2022-09-20T14:37:42;9.80;;;3.47;;
5867;SDS011;2960;49.142;7.768;2022-09-20T14:40:18;10.00;;;3.50;;
5867;SDS011;2960;49.142;7.768;2022-09-20T14:42:50;10.00;;;3.20;;
5867;SDS011;2960;49.142;7.768;2022-09-20T14:45:23;9.90;;;3.30;;
5867;SDS011;2960;49.142;7.768;2022-09-20T14:47:56;9.80;;;3.40;;
5867;SDS011;2960;49.142;7.768;2022-09-20T14:50:29;9.70;;;3.43;;
5867;SDS011;2960;49.142;7.768;2022-09-20T14:53:03;9.80;;;3.50;;
5867;SDS011;2960;49.142;7.768;2022-09-20T14:55:57;9.83;;;3.20;;
5867;SDS011;2960;49.142;7.768;2022-09-20T15:01:44;13.23;;;3.80;;
5867;SDS011;2960;49.142;7.768;2022-09-20T15:04:34;9.93;;;3.80;;
5867;SDS011;2960;49.142;7.768;2022-09-20T15:07:02;9.93;;;3.80;;
5867;SDS011;2960;49.142;7.768;2022-09-20T15:09:32;10.57;;;3.70;;
5867;SDS011;2960;49.142;7.768;2022-09-20T15:12:10;9.63;;;3.30;;
5867;SDS011;2960;49.142;7.768;2022-09-20T15:14:40;9.53;;;3.03;;
5867;SDS011;2960;49.142;7.768;2022-09-20T15:17:08;9.77;;;3.30;;
5867;SDS011;2960;49.142;7.768;2022-09-20T15:19:41;9.90;;;3.30;;
5867;SDS011;2960;49.142;7.768;2022-09-20T15:22:08;9.57;;;3.10;;
5867;SDS011;2960;49.142;7.768;2022-09-20T15:24:36;10.00;;;3.43;;
5867;SDS011;2960;49.142;7.768;2022-09-20T15:27:05;9.70;;;3.13;;
5867;SDS011;2960;49.142;7.768;2022-09-20T15:29:32;9.80;;;3.20;;
5867;SDS011;2960;49.142;7.768;2022-09-20T15:31:59;10.40;;;3.57;;
5867;SDS011;2960;49.142;7.768;2022-09-20T15:34:26;11.33;;;3.77;;
5867;SDS011;2960;49.142;7.768;2022-09-20T15:36:54;9.90;;;3.47;;
5867;SDS011;2960;49.142;7.768;2022-09-20T15:39:21;9.80;;;3.40;;
5867;SDS011;2960;49.142;7.768;2022-09-20T15:41:50;9.67;;;3.30;;
5867;SDS011;2960;49.142;7.768;2022-09-20T15:44:19;10.20;;;3.70;;
5867;SDS011;2960;49.142;7.768;2022-09-20T15:46:46;10.00;;;3.50;;
5867;SDS011;2960;49.142;7.768;2022-09-20T15:49:15;9.90;;;3.60;;
5867;SDS011;2960;49.142;7.768;2022-09-20T15:51:42;9.70;;;3.37;;
5867;SDS011;2960;49.142;7.768;2022-09-20T15:54:11;9.77;;;3.40;;
5867;SDS011;2960;49.142;7.768;2022-09-20T15:56:39;10.30;;;3.60;;
5867;SDS011;2960;49.142;7.768;2022-09-20T15:59:07;9.70;;;3.30;;
5867;SDS011;2960;49.142;7.768;2022-09-20T16:01:39;10.07;;;3.70;;
5867;SDS011;2960;49.142;7.768;2022-09-20T16:04:07;9.77;;;3.33;;
5867;SDS011;2960;49.142;7.768;2022-09-20T16:06:37;9.83;;;3.27;;
5867;SDS011;2960;49.142;7.768;2022-09-20T16:09:05;11.23;;;3.83;;
5867;SDS011;2960;49.142;7.768;2022-09-20T16:11:33;10.30;;;3.70;;
5867;SDS011;2960;49.142;7.768;2022-09-20T16:14:01;9.90;;;3.50;;
5867;SDS011;2960;49.142;7.768;2022-09-20T16:16:28;10.00;;;3.50;;
5867;SDS011;2960;49.142;7.768;2022-09-20T16:18:59;9.90;;;3.43;;
5867;SDS011;2960;49.142;7.768;2022-09-20T16:21:44;10.00;;;3.37;;
5867;SDS011;2960;49.142;7.768;2022-09-20T16:24:13;10.00;;;3.30;;
5867;SDS011;2960;49.142;7.768;2022-09-20T16:26:41;10.20;;;3.37;;
5867;SDS011;2960;49.142;7.768;2022-09-20T16:29:09;9.63;;;3.10;;
5867;SDS011;2960;49.142;7.768;2022-09-20T16:31:36;9.90;;;3.40;;
5867;SDS011;2960;49.142;7.768;2022-09-20T16:34:10;10.30;;;3.50;;
5867;SDS011;2960;49.142;7.768;2022-09-20T16:36:41;9.80;;;3.30;;
5867;SDS011;2960;49.142;7.768;2022-09-20T16:39:08;10.20;;;3.97;;
5867;SDS011;2960;49.142;7.768;2022-09-20T16:41:36;10.87;;;3.90;;
5867;SDS011;2960;49.142;7.768;2022-09-20T16:44:04;10.43;;;4.00;;
5867;SDS011;2960;49.142;7.768;2022-09-20T16:46:32;10.87;;;4.00;;
5867;SDS011;2960;49.142;7.768;2022-09-20T16:49:02;11.17;;;3.50;;
5867;SDS011;2960;49.142;7.768;2022-09-20T16:51:33;10.10;;;3.90;;
5867;SDS011;2960;49.142;7.768;2022-09-20T16:54:02;10.10;;;3.67;;
5867;SDS011;2960;49.142;7.768;2022-09-20T16:56:34;10.00;;;4.00;;
5867;SDS011;2960;49.142;7.768;2022-09-20T16:59:02;10.40;;;3.90;;
5867;SDS011;2960;49.142;7.768;2022-09-20T17:01:33;10.23;;;4.10;;
5867;SDS011;2960;49.142;7.768;2022-09-20T17:04:02;10.30;;;3.90;;
5867;SDS011;2960;49.142;7.768;2022-09-20T17:06:31;10.20;;;3.70;;